Time;durP1;ratioP1;P1;durP2;ratioP2;P2;SDS_P1;SDS_P2;PMS_P1;PMS_P2;Temp;Humidity;BMP_temperature;BMP_pressure;BME280_temperature;BME280_humidity;BME280_pressure;Samples;Min_cycle;Max_cycle;Signal;HPM_P1;HPM_P2
2022/06/06 00:01:11;;;;;;;1.02;1.02;;;21.70;78.70;;;;;;5034223;28;20269;-73
2022/06/06 00:03:36;;;;;;;1.20;1.10;;;21.70;78.60;;;;;;5050713;28;20261;-72
2022/06/06 00:06:13;;;;;;;2.78;1.23;;;21.80;78.80;;;;;;5050845;28;20233;-73
2022/06/06 00:08:40;;;;;;;1.20;1.10;;;21.70;78.70;;;;;;5051127;28;20255;-72
2022/06/06 00:11:09;;;;;;;1.10;1.10;;;21.80;78.80;;;;;;5050389;28;20178;-72
2022/06/06 00:13:41;;;;;;;1.00;1.00;;;21.80;78.70;;;;;;5042728;28;20182;-72
2022/06/06 00:16:08;;;;;;;1.40;1.30;;;21.70;78.50;;;;;;5035899;28;20206;-73
2022/06/06 00:18:35;;;;;;;1.27;1.17;;;21.80;78.70;;;;;;5051090;28;20175;-73
2022/06/06 00:21:06;;;;;;;2.03;1.38;;;21.70;78.50;;;;;;5050867;28;20194;-72
2022/06/06 00:23:32;;;;;;;2.08;1.80;;;21.80;78.60;;;;;;5051674;28;20187;-73
2022/06/06 00:25:58;;;;;;;1.67;1.58;;;21.80;78.50;;;;;;5050410;28;20259;-72
2022/06/06 00:28:23;;;;;;;2.45;1.67;;;21.70;78.30;;;;;;5034111;28;20261;-73
2022/06/06 00:34:48;;;;;;;1.95;1.50;;;21.70;78.30;;;;;;5040607;28;20236;-73
2022/06/06 00:36:36;;;;;;;1.13;1.13;;;21.80;78.30;;;;;;5031714;28;20677;-73
2022/06/06 00:39:06;;;;;;;1.38;1.08;;;21.80;78.30;;;;;;5030720;28;20230;-73
2022/06/06 00:41:37;;;;;;;0.98;0.98;;;21.80;78.20;;;;;;5030753;28;20194;-73
2022/06/06 00:44:16;;;;;;;1.50;1.40;;;21.70;78.10;;;;;;5021691;28;20258;-73
2022/06/06 00:47:08;;;;;;;1.70;1.60;;;21.70;78.90;;;;;;5047803;28;20197;-73
2022/06/06 00:49:40;;;;;;;1.88;1.75;;;21.70;78.00;;;;;;5052435;28;20162;-73
2022/06/06 00:52:19;;;;;;;1.40;1.30;;;21.70;78.00;;;;;;5053744;28;20187;-73
2022/06/06 00:54:48;;;;;;;1.15;1.15;;;21.70;78.00;;;;;;5037025;28;20245;-73
2022/06/06 00:57:21;;;;;;;1.35;1.25;;;21.70;77.90;;;;;;5037312;28;20179;-73
2022/06/06 00:59:47;;;;;;;1.02;1.02;;;21.70;77.80;;;;;;5054190;28;20648;-73
2022/06/06 01:02:14;;;;;;;1.30;1.20;;;21.70;77.70;;;;;;5037169;28;20188;-73
2022/06/06 01:04:42;;;;;;;1.30;1.20;;;21.70;77.70;;;;;;5053565;28;20256;-73
2022/06/06 01:07:11;;;;;;;1.75;1.40;;;21.70;77.70;;;;;;5037080;28;20194;-73
2022/06/06 01:09:39;;;;;;;1.40;1.30;;;21.70;77.70;;;;;;5053925;28;20648;-73
2022/06/06 01:12:13;;;;;;;1.40;1.30;;;21.70;77.60;;;;;;5050281;28;20187;-73
2022/06/06 01:14:46;;;;;;;1.55;1.45;;;21.70;77.60;;;;;;5042165;28;20211;-73
2022/06/06 01:17:49;;;;;;;1.58;1.48;;;21.70;77.60;;;;;;5053899;28;20254;-73
2022/06/06 01:20:55;;;;;;;1.60;1.38;;;21.70;77.70;;;;;;5048907;28;20205;-73
2022/06/06 01:23:48;;;;;;;2.17;1.30;;;21.70;77.50;;;;;;5036534;28;20202;-73
2022/06/06 01:26:35;;;;;;;1.90;1.70;;;21.70;77.50;;;;;;5053610;28;20203;-73
2022/06/06 01:29:28;;;;;;;1.40;1.30;;;21.70;77.50;;;;;;5036964;28;20189;-73
2022/06/06 01:32:08;;;;;;;1.58;1.33;;;21.70;77.40;;;;;;5053404;28;20182;-73
2022/06/06 01:34:40;;;;;;;1.20;1.10;;;21.70;77.30;;;;;;5053321;28;20226;-72
2022/06/06 01:37:22;;;;;;;1.15;1.00;;;21.70;77.30;;;;;;5053282;28;20190;-72
2022/06/06 01:39:48;;;;;;;1.10;1.00;;;21.60;77.10;;;;;;5054197;28;20584;-73
2022/06/06 01:42:43;;;;;;;1.23;1.13;;;21.60;77.00;;;;;;5053230;28;20186;-73
2022/06/06 01:45:22;;;;;;;2.53;1.33;;;21.70;77.10;;;;;;5033369;28;20207;-73
2022/06/06 01:48:00;;;;;;;1.48;1.35;;;21.70;77.10;;;;;;5033012;28;20187;-73
2022/06/06 01:50:27;;;;;;;1.48;1.13;;;21.70;77.10;;;;;;5016814;28;20187;-72
2022/06/06 01:52:59;;;;;;;0.93;0.93;;;21.60;77.00;;;;;;5034232;28;20187;-73
2022/06/06 01:55:30;;;;;;;1.42;1.20;;;21.60;76.90;;;;;;5032704;28;20211;-73
2022/06/06 01:58:03;;;;;;;1.20;1.20;;;21.70;77.00;;;;;;5025452;28;20180;-73
2022/06/06 02:00:33;;;;;;;1.83;1.23;;;21.60;76.90;;;;;;4996834;28;20186;-73
2022/06/06 02:02:59;;;;;;;1.30;1.20;;;21.60;76.80;;;;;;5012879;28;20234;-73
2022/06/06 02:05:26;;;;;;;1.25;1.15;;;21.60;76.80;;;;;;5013064;28;20208;-73
2022/06/06 02:07:51;;;;;;;1.20;1.10;;;21.60;76.70;;;;;;5014438;28;20180;-73
2022/06/06 02:10:19;;;;;;;1.25;1.15;;;21.60;76.70;;;;;;5012943;28;20234;-73
2022/06/06 02:12:46;;;;;;;1.40;1.30;;;21.70;76.80;;;;;;5015103;28;20265;-74
2022/06/06 02:15:16;;;;;;;0.95;0.95;;;21.70;76.80;;;;;;5044139;28;20198;-74
2022/06/06 02:17:42;;;;;;;1.45;1.35;;;21.60;76.70;;;;;;5052642;28;20209;-73
2022/06/06 02:20:10;;;;;;;1.27;1.27;;;21.60;76.60;;;;;;5035412;28;20183;-73
2022/06/06 02:22:36;;;;;;;1.40;1.30;;;21.70;76.60;;;;;;5053425;28;20193;-73
2022/06/06 02:25:02;;;;;;;1.52;1.42;;;21.70;76.70;;;;;;5052385;28;20205;-73
2022/06/06 02:27:28;;;;;;;1.60;1.50;;;21.60;76.50;;;;;;5035792;28;20187;-73
2022/06/06 02:29:54;;;;;;;1.58;1.48;;;21.60;76.40;;;;;;5052401;28;20171;-73
2022/06/06 02:32:21;;;;;;;1.20;1.20;;;21.60;76.40;;;;;;5051764;28;20637;-73
2022/06/06 02:34:47;;;;;;;1.00;1.00;;;21.60;76.40;;;;;;5035901;28;20202;-73
2022/06/06 02:37:13;;;;;;;1.20;1.10;;;21.60;76.40;;;;;;5035861;28;20211;-73
2022/06/06 02:39:39;;;;;;;1.48;1.38;;;21.60;76.30;;;;;;5023666;28;20282;-73
2022/06/06 02:42:05;;;;;;;1.73;1.20;;;21.60;76.30;;;;;;5007720;28;20701;-73
2022/06/06 02:44:31;;;;;;;1.25;1.15;;;21.60;76.20;;;;;;5047839;28;20271;-73
2022/06/06 02:46:57;;;;;;;1.50;1.40;;;21.60;76.20;;;;;;5032532;28;20187;-73
2022/06/06 02:49:23;;;;;;;1.10;1.00;;;21.60;76.20;;;;;;5032325;28;20245;-73
2022/06/06 02:51:49;;;;;;;1.17;1.17;;;21.60;76.20;;;;;;5031910;28;20241;-73
2022/06/06 02:54:15;;;;;;;1.48;1.20;;;21.60;76.10;;;;;;5031654;28;20183;-73
2022/06/06 02:56:40;;;;;;;1.20;1.20;;;21.60;76.10;;;;;;5032067;28;20245;-73
2022/06/06 02:59:08;;;;;;;1.30;1.10;;;21.60;76.10;;;;;;5015371;28;20189;-73
2022/06/06 03:01:35;;;;;;;1.30;1.20;;;21.60;76.00;;;;;;5031935;28;20179;-73
2022/06/06 03:04:01;;;;;;;1.30;1.25;;;21.60;76.00;;;;;;5031081;28;20276;-73
2022/06/06 03:06:58;;;;;;;1.42;1.33;;;21.60;76.00;;;;;;5031432;28;20213;-73
2022/06/06 03:10:07;;;;;;;22.85;18.35;;;21.60;76.00;;;;;;5015407;28;20217;-73
2022/06/06 03:12:58;;;;;;;1.38;1.30;;;21.60;75.90;;;;;;5023465;28;20662;-73
2022/06/06 03:21:58;;;;;;;3.70;2.13;;;21.60;75.90;;;;;;5031659;28;20185;-73
2022/06/06 03:25:12;;;;;;;2.30;2.10;;;21.60;75.80;;;;;;5014527;28;20233;-73
2022/06/06 03:28:01;;;;;;;2.45;2.22;;;21.60;75.80;;;;;;5027055;28;20203;-73
2022/06/06 03:31:02;;;;;;;2.60;2.40;;;21.60;75.80;;;;;;5015000;28;20183;-73
2022/06/06 03:33:54;;;;;;;1.90;1.80;;;21.50;75.60;;;;;;5031031;28;20183;-73
2022/06/06 03:36:35;;;;;;;2.20;2.00;;;21.60;76.50;;;;;;5031359;28;20211;-73
2022/06/06 03:39:31;;;;;;;2.00;1.90;;;21.60;75.70;;;;;;5031427;28;20275;-73
2022/06/06 03:42:15;;;;;;;2.22;2.03;;;21.60;75.70;;;;;;5027912;28;20293;-73
2022/06/06 03:45:13;;;;;;;2.50;2.30;;;21.60;75.70;;;;;;5039646;28;20282;-74
2022/06/06 03:48:20;;;;;;;2.15;2.03;;;21.60;75.60;;;;;;5034166;28;20190;-74
2022/06/06 03:50:48;;;;;;;2.30;2.10;;;21.60;75.60;;;;;;5034207;28;20185;-73
2022/06/06 03:53:53;;;;;;;2.05;1.95;;;21.60;75.50;;;;;;5050690;28;20205;-73
2022/06/06 03:57:11;;;;;;;2.28;2.08;;;21.50;75.30;;;;;;5034509;28;20213;-73
2022/06/06 03:59:39;;;;;;;2.13;1.92;;;21.50;75.30;;;;;;5050847;28;20182;-73
2022/06/06 04:02:07;;;;;;;1.90;1.80;;;21.60;75.30;;;;;;5050320;28;20186;-73
2022/06/06 04:04:34;;;;;;;2.03;1.85;;;21.60;75.30;;;;;;5050451;28;20214;-73
2022/06/06 04:07:03;;;;;;;1.70;1.60;;;21.60;75.30;;;;;;5034514;28;20190;-73
2022/06/06 04:09:34;;;;;;;1.80;1.70;;;21.50;75.10;;;;;;5033807;28;20558;-73
2022/06/06 04:12:22;;;;;;;2.03;1.92;;;21.60;75.30;;;;;;5045050;28;20219;-73
2022/06/06 04:15:15;;;;;;;1.80;1.70;;;21.50;75.10;;;;;;5055363;28;20295;-73
2022/06/06 04:18:04;;;;;;;2.40;2.20;;;21.50;75.10;;;;;;5034110;28;20251;-72
2022/06/06 04:21:01;;;;;;;2.17;1.52;;;21.50;75.10;;;;;;5050700;28;20170;-73
2022/06/06 04:24:14;;;;;;;1.42;1.33;;;21.60;75.10;;;;;;5050353;28;20216;-72
2022/06/06 04:27:20;;;;;;;2.05;1.95;;;21.50;75.00;;;;;;5038424;28;20194;-73
2022/06/06 04:30:14;;;;;;;1.60;1.50;;;21.50;74.90;;;;;;5015117;28;20696;-72
2022/06/06 04:33:45;;;;;;;2.28;1.70;;;21.50;74.90;;;;;;5014551;28;20195;-72
2022/06/06 04:36:52;;;;;;;1.70;1.60;;;21.50;74.90;;;;;;4990141;28;20224;-73
2022/06/06 04:39:29;;;;;;;1.77;1.67;;;21.50;75.00;;;;;;5014806;28;20670;-73
2022/06/06 04:42:07;;;;;;;1.90;1.80;;;21.50;74.90;;;;;;5016510;28;20192;-73
2022/06/06 04:44:54;;;;;;;1.83;1.73;;;21.50;74.90;;;;;;5033872;28;20693;-73
2022/06/06 04:47:36;;;;;;;1.92;1.73;;;21.50;74.90;;;;;;5014490;28;20184;-73
2022/06/06 04:50:16;;;;;;;2.50;1.85;;;21.50;74.90;;;;;;5015913;28;20164;-73
2022/06/06 04:52:51;;;;;;;1.80;1.70;;;21.50;74.90;;;;;;5014313;28;20168;-73
2022/06/06 04:55:19;;;;;;;2.03;1.92;;;21.50;74.90;;;;;;5030675;28;20210;-73
2022/06/06 04:57:51;;;;;;;1.70;1.60;;;21.50;74.90;;;;;;5030598;28;20187;-73
2022/06/06 05:00:17;;;;;;;1.65;1.55;;;21.50;74.90;;;;;;5014351;28;20188;-73
2022/06/06 05:02:43;;;;;;;1.88;1.77;;;21.50;74.80;;;;;;5014202;28;20192;-73
2022/06/06 05:05:10;;;;;;;1.60;1.50;;;21.50;74.80;;;;;;5020262;28;20225;-73
2022/06/06 05:07:47;;;;;;;1.63;1.52;;;21.50;74.60;;;;;;5017616;28;20190;-73
2022/06/06 05:10:49;;;;;;;1.80;1.70;;;21.50;74.80;;;;;;5034246;28;20191;-73
2022/06/06 05:14:06;;;;;;;1.90;1.80;;;21.50;74.90;;;;;;5039176;28;20244;-73
2022/06/06 05:17:08;;;;;;;1.50;1.42;;;21.50;74.90;;;;;;5045471;28;20691;-73
2022/06/06 05:20:27;;;;;;;1.50;1.40;;;21.50;74.90;;;;;;5053745;28;20174;-73
2022/06/06 05:23:31;;;;;;;1.83;1.73;;;21.50;74.90;;;;;;5053670;28;20214;-75
2022/06/06 05:26:44;;;;;;;1.75;1.65;;;21.50;74.90;;;;;;5037261;28;20241;-75
2022/06/06 05:29:25;;;;;;;1.70;1.60;;;21.50;74.90;;;;;;5036733;28;20183;-75
2022/06/06 05:32:21;;;;;;;1.73;1.63;;;21.50;75.00;;;;;;5036789;28;20356;-75
2022/06/06 05:35:26;;;;;;;1.60;1.50;;;21.50;75.00;;;;;;5053186;28;20202;-75
2022/06/06 05:38:35;;;;;;;1.58;1.50;;;21.50;75.70;;;;;;5053368;28;20257;-75
2022/06/06 05:41:49;;;;;;;2.00;1.90;;;21.50;75.00;;;;;;5053399;28;20197;-75
2022/06/06 05:45:10;;;;;;;1.63;1.52;;;21.50;75.00;;;;;;5039858;28;20205;-75
2022/06/06 05:48:20;;;;;;;1.73;1.60;;;21.50;75.00;;;;;;5002201;28;20561;-75
2022/06/06 05:51:03;;;;;;;1.70;1.60;;;21.50;75.10;;;;;;5007078;28;20680;-75
2022/06/06 05:54:38;;;;;;;1.50;1.40;;;21.50;75.20;;;;;;4996048;28;20544;-75
2022/06/06 05:57:47;;;;;;;1.75;1.65;;;21.50;75.10;;;;;;5014829;28;20188;-75
2022/06/06 06:00:51;;;;;;;1.80;1.70;;;21.50;75.10;;;;;;5013680;28;20215;-75
2022/06/06 06:03:46;;;;;;;1.60;1.50;;;21.50;75.20;;;;;;5009886;28;20278;-75
2022/06/06 06:06:32;;;;;;;1.67;1.55;;;21.50;75.10;;;;;;5014347;28;20291;-75
2022/06/06 06:09:23;;;;;;;1.95;1.80;;;21.50;75.20;;;;;;5026106;28;20193;-75
2022/06/06 06:12:47;;;;;;;1.67;1.50;;;21.50;75.30;;;;;;5027144;28;20210;-76
2022/06/06 06:15:36;;;;;;;1.85;1.73;;;21.50;75.30;;;;;;5012695;28;20703;-75
2022/06/06 06:18:14;;;;;;;1.55;1.45;;;21.50;75.20;;;;;;5025192;28;20191;-75
2022/06/06 06:21:01;;;;;;;2.08;1.98;;;21.50;75.20;;;;;;5032431;28;20209;-75
2022/06/06 06:23:33;;;;;;;2.65;1.58;;;21.50;75.30;;;;;;5032181;28;20203;-75
2022/06/06 06:26:06;;;;;;;1.77;1.60;;;21.50;75.40;;;;;;5016016;28;20214;-75
2022/06/06 06:28:36;;;;;;;1.70;1.60;;;21.50;75.40;;;;;;5021028;28;20188;-75
2022/06/06 06:31:40;;;;;;;1.65;1.55;;;21.50;75.50;;;;;;5045823;28;20218;-75
2022/06/06 06:34:45;;;;;;;1.70;1.60;;;21.50;75.40;;;;;;5026603;28;20697;-75
2022/06/06 06:37:29;;;;;;;2.03;1.83;;;21.50;75.40;;;;;;5032380;28;20194;-75
2022/06/06 06:40:17;;;;;;;2.33;1.98;;;21.50;75.50;;;;;;5032204;28;20246;-75
2022/06/06 06:43:07;;;;;;;1.52;1.45;;;21.50;75.50;;;;;;5009085;28;20207;-75
2022/06/06 06:46:00;;;;;;;1.60;1.50;;;21.50;75.50;;;;;;5043261;28;20206;-75
2022/06/06 06:48:48;;;;;;;1.40;1.30;;;21.50;75.50;;;;;;5015891;28;20177;-75
2022/06/06 06:51:31;;;;;;;1.63;1.52;;;21.50;75.70;;;;;;5015126;28;20203;-76
2022/06/06 06:54:21;;;;;;;1.88;1.77;;;21.50;75.60;;;;;;5031893;28;20662;-75
2022/06/06 06:57:19;;;;;;;1.67;1.58;;;21.50;75.70;;;;;;5015561;28;20175;-75
2022/06/06 07:00:14;;;;;;;1.60;1.50;;;21.50;75.50;;;;;;5011705;28;20192;-74
2022/06/06 07:10:02;;;;;;;1.40;1.40;;;21.60;75.50;;;;;;5013351;28;20168;-74
2022/06/06 07:13:07;;;;;;;1.75;1.65;;;21.60;75.50;;;;;;5017991;28;20274;-73
2022/06/06 07:15:52;;;;;;;1.38;1.30;;;21.70;75.80;;;;;;5036115;28;20295;-74
2022/06/06 07:18:24;;;;;;;1.50;1.40;;;21.70;75.50;;;;;;5032735;28;20179;-74
2022/06/06 07:20:53;;;;;;;1.92;1.55;;;21.70;75.80;;;;;;5031534;28;20220;-75
2022/06/06 07:23:21;;;;;;;1.60;1.50;;;21.60;75.80;;;;;;5031488;28;20260;-74
2022/06/06 07:25:50;;;;;;;1.60;1.50;;;21.70;75.90;;;;;;5014858;28;20222;-74
2022/06/06 07:28:22;;;;;;;1.30;1.20;;;21.70;75.60;;;;;;5030829;28;20201;-75
2022/06/06 07:31:01;;;;;;;1.55;1.45;;;21.70;75.80;;;;;;5015137;28;20194;-74
2022/06/06 07:34:08;;;;;;;2.10;1.88;;;21.70;75.90;;;;;;5031319;28;20191;-74
2022/06/06 07:36:52;;;;;;;1.55;1.45;;;21.70;75.80;;;;;;5025258;28;20180;-74
2022/06/06 07:39:52;;;;;;;1.55;1.42;;;21.70;75.70;;;;;;5011596;28;20253;-74
2022/06/06 07:42:33;;;;;;;2.15;1.88;;;21.70;75.80;;;;;;5012584;28;20183;-74
2022/06/06 07:45:34;;;;;;;1.85;1.65;;;21.70;75.90;;;;;;5025761;28;20220;-74
2022/06/06 07:48:57;;;;;;;1.85;1.75;;;21.70;76.30;;;;;;5049518;28;20195;-74
2022/06/06 07:51:44;;;;;;;1.65;1.55;;;21.80;76.00;;;;;;5051972;28;20210;-73
2022/06/06 07:54:34;;;;;;;1.80;1.70;;;21.80;76.20;;;;;;5033988;28;20193;-74
2022/06/06 07:57:16;;;;;;;1.70;1.60;;;21.80;75.90;;;;;;5050921;28;20562;-74
2022/06/06 08:00:17;;;;;;;1.70;1.60;;;21.80;75.90;;;;;;5034516;28;20182;-74
2022/06/06 08:03:16;;;;;;;1.75;1.50;;;21.80;76.10;;;;;;5051871;28;20265;-75
2022/06/06 08:06:12;;;;;;;1.52;1.40;;;21.80;76.00;;;;;;5034403;28;20234;-74
2022/06/06 08:08:59;;;;;;;1.58;1.48;;;21.80;76.00;;;;;;5034278;28;20186;-74
2022/06/06 08:11:58;;;;;;;1.52;1.42;;;21.80;75.70;;;;;;5052307;28;20170;-74
2022/06/06 08:14:44;;;;;;;4.07;1.80;;;21.80;75.60;;;;;;5034833;28;20203;-74
2022/06/06 08:17:41;;;;;;;1.60;1.50;;;21.90;75.80;;;;;;5011041;28;20263;-74
2022/06/06 08:20:31;;;;;;;1.58;1.48;;;21.80;76.10;;;;;;5012322;28;20171;-74
2022/06/06 08:23:01;;;;;;;2.03;1.45;;;21.90;76.00;;;;;;5010964;28;20176;-74
2022/06/06 08:25:29;;;;;;;1.48;1.38;;;21.90;76.20;;;;;;5011034;28;20212;-74
2022/06/06 08:27:56;;;;;;;2.25;1.70;;;21.90;76.10;;;;;;5011263;28;20267;-74
2022/06/06 08:30:23;;;;;;;1.75;1.65;;;21.90;75.90;;;;;;5010826;28;20215;-73
2022/06/06 08:32:49;;;;;;;2.55;1.70;;;21.80;75.90;;;;;;5027004;28;20188;-73
2022/06/06 08:35:16;;;;;;;1.55;1.45;;;21.90;76.00;;;;;;5010780;28;20262;-74
2022/06/06 08:38:19;;;;;;;1.50;1.40;;;21.90;76.00;;;;;;5011237;28;20227;-74
2022/06/06 08:41:25;;;;;;;1.70;1.58;;;21.90;75.80;;;;;;5010974;28;20187;-74
2022/06/06 08:44:16;;;;;;;1.85;1.67;;;21.90;75.70;;;;;;5036315;28;20202;-74
2022/06/06 08:46:49;;;;;;;1.70;1.55;;;21.90;75.60;;;;;;5031485;28;20178;-73
2022/06/06 08:50:45;;;;;;;2.13;1.70;;;21.90;75.50;;;;;;5050477;28;20175;-74
2022/06/06 08:53:39;;;;;;;1.70;1.60;;;21.90;75.40;;;;;;5033892;28;20197;-73
2022/06/06 08:56:45;;;;;;;1.58;1.48;;;22.00;75.50;;;;;;5049999;28;20210;-74
2022/06/06 08:59:50;;;;;;;1.60;1.50;;;22.00;75.20;;;;;;5050227;28;20221;-73
2022/06/06 09:02:31;;;;;;;1.65;1.55;;;22.00;75.10;;;;;;5033730;28;20171;-73
2022/06/06 09:05:21;;;;;;;1.52;1.42;;;22.00;75.50;;;;;;5050027;28;20214;-73
2022/06/06 09:09:08;;;;;;;1.55;1.45;;;22.00;75.10;;;;;;5033867;28;20183;-74
2022/06/06 09:12:18;;;;;;;1.75;1.65;;;22.00;75.00;;;;;;5035825;28;20175;-73
2022/06/06 09:15:26;;;;;;;1.98;1.67;;;21.90;75.20;;;;;;5040421;28;20210;-73
2022/06/06 09:18:29;;;;;;;1.90;1.80;;;22.00;75.10;;;;;;5054382;28;20583;-73
2022/06/06 09:21:14;;;;;;;1.70;1.60;;;22.00;75.70;;;;;;5037531;28;20181;-74
2022/06/06 09:24:47;;;;;;;1.48;1.38;;;22.00;75.40;;;;;;5053568;28;20205;-74
2022/06/06 09:27:35;;;;;;;3.60;2.03;;;22.00;75.10;;;;;;5040620;28;20210;-74
2022/06/06 09:30:21;;;;;;;2.05;1.95;;;22.00;75.00;;;;;;5045311;28;20211;-74
2022/06/06 09:34:03;;;;;;;2.15;1.70;;;22.00;75.10;;;;;;5017212;28;20195;-73
2022/06/06 09:36:46;;;;;;;3.83;1.55;;;22.00;75.00;;;;;;5002014;28;20203;-74
2022/06/06 09:39:58;;;;;;;1.85;1.75;;;22.00;75.00;;;;;;5034226;28;20201;-74
2022/06/06 09:42:51;;;;;;;1.75;1.52;;;21.90;74.90;;;;;;5011582;28;20191;-73
2022/06/06 09:45:32;;;;;;;1.77;1.67;;;22.00;74.50;;;;;;5035723;28;20250;-74
2022/06/06 09:48:22;;;;;;;1.85;1.75;;;22.00;74.70;;;;;;5034421;28;20240;-74
2022/06/06 09:51:34;;;;;;;1.80;1.70;;;22.00;74.70;;;;;;5033379;28;20172;-74
2022/06/06 10:01:41;;;;;;;7.45;2.05;;;22.10;74.80;;;;;;5032507;28;20179;-74
2022/06/06 10:04:48;;;;;;;5.80;1.83;;;22.10;75.00;;;;;;4994267;28;20278;-73
2022/06/06 10:08:05;;;;;;;5.38;2.22;;;22.00;74.50;;;;;;5032788;28;20183;-73
2022/06/06 10:10:59;;;;;;;5.05;1.80;;;22.00;74.80;;;;;;5023435;28;20183;-73
2022/06/06 10:14:20;;;;;;;3.22;2.13;;;22.00;74.70;;;;;;5028617;28;20297;-74
2022/06/06 10:17:15;;;;;;;3.30;1.80;;;22.00;74.90;;;;;;5020946;28;20200;-74
2022/06/06 10:19:54;;;;;;;3.38;2.22;;;22.00;74.70;;;;;;5012693;28;20606;-74
2022/06/06 10:22:46;;;;;;;4.78;1.83;;;22.00;74.50;;;;;;5029204;28;20180;-73
2022/06/06 10:25:53;;;;;;;4.90;2.20;;;22.00;74.60;;;;;;5012711;28;20291;-74
2022/06/06 10:28:54;;;;;;;3.53;1.98;;;22.00;74.80;;;;;;5006908;28;20236;-74
2022/06/06 10:31:48;;;;;;;3.08;2.10;;;22.00;74.80;;;;;;5010482;28;20191;-74
2022/06/06 10:35:07;;;;;;;2.25;1.95;;;22.00;74.70;;;;;;5012362;28;20211;-73
2022/06/06 10:38:16;;;;;;;2.63;1.90;;;22.00;75.00;;;;;;4996426;28;20196;-73
2022/06/06 10:41:03;;;;;;;2.45;1.70;;;22.00;75.00;;;;;;5013572;28;20192;-74
2022/06/06 10:43:35;;;;;;;2.67;1.77;;;22.00;74.60;;;;;;5033081;28;20229;-73
2022/06/06 10:46:20;;;;;;;2.00;1.90;;;22.00;74.70;;;;;;5019200;28;20221;-74
2022/06/06 10:49:06;;;;;;;4.22;2.00;;;22.00;75.00;;;;;;5053280;28;20232;-73
2022/06/06 10:52:29;;;;;;;1.83;1.70;;;22.00;74.70;;;;;;5052481;28;20189;-74
2022/06/06 10:55:27;;;;;;;2.45;1.90;;;22.00;74.50;;;;;;5035048;28;20600;-74
2022/06/06 10:58:28;;;;;;;3.10;2.00;;;22.10;74.40;;;;;;5035142;28;20202;-73
2022/06/06 11:01:25;;;;;;;2.10;1.90;;;22.10;74.50;;;;;;5051958;28;20257;-73
2022/06/06 11:04:18;;;;;;;2.78;1.95;;;22.10;74.50;;;;;;5051454;28;20217;-73
2022/06/06 11:07:08;;;;;;;3.00;1.90;;;22.10;74.30;;;;;;5047632;28;20194;-74
2022/06/06 11:09:52;;;;;;;2.60;1.65;;;22.10;74.50;;;;;;5015072;28;20171;-73
2022/06/06 11:12:36;;;;;;;3.00;1.80;;;22.10;74.70;;;;;;5031934;28;20237;-74
2022/06/06 11:15:04;;;;;;;3.95;1.95;;;22.10;74.50;;;;;;5015264;28;20211;-74
2022/06/06 11:18:17;;;;;;;2.40;1.95;;;22.10;74.50;;;;;;5015053;28;20191;-71
2022/06/06 11:21:22;;;;;;;1.85;1.75;;;22.10;74.50;;;;;;5023837;28;20207;-71
2022/06/06 11:24:07;;;;;;;2.15;2.05;;;22.10;74.30;;;;;;4994472;28;20258;-71
2022/06/06 11:27:20;;;;;;;2.50;1.95;;;22.10;74.30;;;;;;5014694;28;20191;-71
2022/06/06 11:30:02;;;;;;;2.83;1.70;;;22.10;74.20;;;;;;5015106;28;20187;-71
2022/06/06 11:32:48;;;;;;;2.28;1.88;;;22.10;74.10;;;;;;5031467;28;20175;-71
2022/06/06 11:35:44;;;;;;;2.30;1.70;;;22.10;74.70;;;;;;5031902;28;20206;-71
2022/06/06 11:38:45;;;;;;;1.75;1.65;;;22.10;73.70;;;;;;5031233;28;20187;-71
2022/06/06 11:41:40;;;;;;;1.90;1.60;;;22.10;73.40;;;;;;5031320;28;20274;-71
2022/06/06 11:44:36;;;;;;;2.10;2.00;;;22.10;73.60;;;;;;5022507;28;20280;-71
2022/06/06 11:47:14;;;;;;;2.13;1.88;;;22.10;73.70;;;;;;5015023;28;20222;-71
2022/06/06 11:50:25;;;;;;;2.00;1.90;;;22.10;73.80;;;;;;5030882;28;20184;-71
2022/06/06 11:53:27;;;;;;;2.05;1.88;;;22.10;73.90;;;;;;5014543;28;20183;-71
2022/06/06 11:56:16;;;;;;;1.90;1.80;;;22.10;73.90;;;;;;5031129;28;20214;-71
2022/06/06 11:59:03;;;;;;;1.90;1.80;;;22.10;73.90;;;;;;5031091;28;20188;-71
2022/06/06 12:02:10;;;;;;;3.30;2.05;;;22.10;73.70;;;;;;5031279;28;20194;-71
2022/06/06 12:05:31;;;;;;;2.05;1.92;;;22.10;73.70;;;;;;5030449;28;20296;-71
2022/06/06 12:08:12;;;;;;;1.70;1.60;;;22.10;73.60;;;;;;5030814;28;20193;-71
2022/06/06 12:11:07;;;;;;;2.10;1.90;;;22.10;73.80;;;;;;5014163;28;20167;-71
2022/06/06 12:13:54;;;;;;;1.80;1.70;;;22.10;73.60;;;;;;5032170;28;20230;-71
2022/06/06 12:16:35;;;;;;;2.10;1.90;;;22.10;73.60;;;;;;5022953;28;20206;-71
2022/06/06 12:19:47;;;;;;;1.90;1.80;;;22.10;73.60;;;;;;5050652;28;20182;-72
2022/06/06 12:22:50;;;;;;;1.90;1.80;;;22.10;73.50;;;;;;5051028;28;20205;-71
2022/06/06 12:25:47;;;;;;;1.98;1.77;;;22.10;73.50;;;;;;5033926;28;20218;-71
2022/06/06 12:29:03;;;;;;;1.90;1.80;;;22.10;73.30;;;;;;5050743;28;20271;-71
2022/06/06 12:31:38;;;;;;;2.08;1.80;;;22.10;73.40;;;;;;5048930;28;20202;-71
2022/06/06 12:34:51;;;;;;;2.55;1.70;;;22.10;73.50;;;;;;5050259;28;20186;-71
2022/06/06 12:37:49;;;;;;;2.13;1.90;;;22.10;73.40;;;;;;5031547;28;20289;-72
2022/06/06 12:40:46;;;;;;;2.08;1.88;;;22.10;73.40;;;;;;5040916;28;20194;-72
2022/06/06 12:43:51;;;;;;;3.28;1.85;;;22.10;73.30;;;;;;5043654;28;20263;-72
2022/06/06 12:47:02;;;;;;;1.73;1.63;;;22.10;73.20;;;;;;5039769;28;20226;-72
2022/06/06 12:49:41;;;;;;;3.20;1.88;;;22.10;73.20;;;;;;5054066;28;20194;-72
2022/06/06 12:52:12;;;;;;;1.83;1.73;;;22.10;73.30;;;;;;5055243;28;20174;-72
2022/06/06 12:57:43;;;;;;;2.20;2.00;;;22.10;72.90;;;;;;5055396;28;20190;-72
2022/06/06 13:00:14;;;;;;;2.85;1.70;;;22.10;72.90;;;;;;5053836;28;20187;-72
2022/06/06 13:03:06;;;;;;;2.00;1.90;;;22.10;72.90;;;;;;5037441;28;20194;-72
2022/06/06 13:06:06;;;;;;;1.98;1.77;;;22.10;72.90;;;;;;5037259;28;20222;-72
2022/06/06 13:09:00;;;;;;;2.13;1.98;;;22.20;72.70;;;;;;5032653;28;20260;-72
2022/06/06 13:11:41;;;;;;;1.75;1.65;;;22.10;72.40;;;;;;5034027;28;20194;-72
2022/06/06 13:14:48;;;;;;;2.03;1.92;;;22.20;72.60;;;;;;5034683;28;20190;-72
2022/06/06 13:17:30;;;;;;;1.98;1.85;;;22.10;72.60;;;;;;4997808;28;20195;-72
2022/06/06 13:20:20;;;;;;;1.80;1.70;;;22.20;72.70;;;;;;5013877;28;20653;-72
2022/06/06 13:23:42;;;;;;;1.90;1.80;;;22.20;72.50;;;;;;4997485;28;20223;-72
2022/06/06 13:26:16;;;;;;;2.22;2.03;;;22.20;72.60;;;;;;5013766;28;20231;-72
2022/06/06 13:28:45;;;;;;;1.77;1.67;;;22.20;72.30;;;;;;5013823;28;20271;-72
2022/06/06 13:31:51;;;;;;;1.88;1.75;;;22.20;72.50;;;;;;5013941;28;20195;-72
2022/06/06 13:34:35;;;;;;;1.80;1.70;;;22.10;72.30;;;;;;5012969;28;20196;-72
2022/06/06 13:37:27;;;;;;;1.73;1.60;;;22.20;72.30;;;;;;5013773;28;20192;-72
2022/06/06 13:40:28;;;;;;;2.08;1.88;;;22.10;72.40;;;;;;5014759;28;20192;-72
2022/06/06 13:43:46;;;;;;;3.58;1.60;;;22.20;72.40;;;;;;5025106;28;20244;-72
2022/06/06 13:46:52;;;;;;;2.53;1.83;;;22.20;72.50;;;;;;5029180;28;20223;-72
2022/06/06 13:49:51;;;;;;;2.10;2.00;;;22.20;72.40;;;;;;4960264;28;20185;-72
2022/06/06 13:52:55;;;;;;;2.13;1.92;;;22.20;72.30;;;;;;4976396;28;20272;-72
2022/06/06 13:55:37;;;;;;;2.00;1.90;;;22.20;72.30;;;;;;5011628;28;20250;-72
2022/06/06 13:58:41;;;;;;;1.70;1.60;;;22.20;72.20;;;;;;5037990;28;20199;-72
2022/06/06 14:01:30;;;;;;;2.65;1.60;;;22.20;72.20;;;;;;5013446;28;20275;-71
2022/06/06 14:04:32;;;;;;;1.60;1.50;;;22.20;72.30;;;;;;5046191;28;20258;-72
2022/06/06 14:07:25;;;;;;;1.63;1.52;;;22.20;72.30;;;;;;5027706;28;20188;-72
2022/06/06 14:10:03;;;;;;;2.30;1.73;;;22.20;72.10;;;;;;5015759;28;20176;-71
2022/06/06 14:12:43;;;;;;;1.80;1.70;;;22.20;72.00;;;;;;5014987;28;20207;-72
2022/06/06 14:15:17;;;;;;;1.60;1.50;;;22.20;72.00;;;;;;5006038;28;20202;-72
2022/06/06 14:17:56;;;;;;;2.00;1.75;;;22.20;72.00;;;;;;5052673;28;20213;-72
2022/06/06 14:20:44;;;;;;;1.67;1.58;;;22.20;72.00;;;;;;5052780;28;20213;-72
2022/06/06 14:23:24;;;;;;;1.77;1.67;;;22.20;72.20;;;;;;5052603;28;20179;-72
2022/06/06 14:26:01;;;;;;;1.85;1.63;;;22.20;72.00;;;;;;5035997;28;20218;-72
2022/06/06 14:28:34;;;;;;;1.70;1.60;;;22.20;72.10;;;;;;5053868;28;20178;-72
2022/06/06 14:31:02;;;;;;;1.73;1.63;;;22.20;72.00;;;;;;5052702;28;20182;-72
2022/06/06 14:33:34;;;;;;;1.90;1.80;;;22.20;72.20;;;;;;5052236;28;20277;-72
2022/06/06 14:36:27;;;;;;;2.13;1.80;;;22.20;72.00;;;;;;5036040;28;20238;-72
2022/06/06 14:39:01;;;;;;;1.90;1.80;;;22.20;71.90;;;;;;5052208;28;20193;-72
2022/06/06 14:41:39;;;;;;;1.52;1.48;;;22.30;72.10;;;;;;5052131;28;20289;-73
2022/06/06 14:44:05;;;;;;;1.42;1.33;;;22.30;72.10;;;;;;5024934;28;20217;-72
2022/06/06 14:47:02;;;;;;;1.77;1.67;;;22.30;72.30;;;;;;5049312;28;20179;-72
2022/06/06 14:49:33;;;;;;;1.85;1.75;;;22.20;72.00;;;;;;5052596;28;20186;-72
2022/06/06 14:52:11;;;;;;;1.63;1.38;;;22.20;72.00;;;;;;5052630;28;20183;-72
2022/06/06 14:54:39;;;;;;;1.73;1.63;;;22.20;71.90;;;;;;5051897;28;20337;-72
2022/06/06 14:57:12;;;;;;;1.63;1.52;;;22.20;72.00;;;;;;5035693;28;20182;-72
2022/06/06 14:59:45;;;;;;;1.77;1.67;;;22.20;71.70;;;;;;5035704;28;20189;-72